Nearby METAR Reports

 

KOAK - Oakland, California, USA
Distance from station: SSW 6mi, 9km
Updated: Thu, 18-Oct-2018 3:53pm PDT
Few Clouds
Few Clouds
 Wind from WNW
Wind: WNW 12 mph , 19 km/h
Temperature: 70°F , 21°C
Dew Point: 54°F , 12°C
Humidity: 57%
Barometer: 30.07 inHg , 1018.3 hPa
Clouds: Few Clouds
Visibility: 10 miles , 16 km
Cloud details: Few Clouds 1000 ft
2018/10/18 22:53 KOAK 182253Z 29010KT 10SM FEW010 21/12 A3007 RMK AO2 SLP182 T02110117
KHWD - Hayward, California, USA
Distance from station: SSE 8mi, 12km
Updated: Thu, 18-Oct-2018 3:54pm PDT
Clear
Clear
 Wind from W
Wind: W 9 mph , 15 km/h
Temperature: 72°F , 22°C
Dew Point: 54°F , 12°C
Humidity: 53%
Barometer: 30.06 inHg , 1017.9 hPa
Clouds: Clear
Visibility: 9 miles , 14 km
2018/10/18 22:54 KHWD 182254Z 27008KT 9SM CLR 22/12 A3006 RMK AO2 SLP189 T02220122
KSFO - San Francisco, California, USA
Distance from station: SW 15mi, 25km
Updated: Thu, 18-Oct-2018 3:56pm PDT
Few Clouds
Few Clouds
 Wind from WNW
Wind: WNW 20 mph , 31 km/h
Temperature: 64°F , 18°C
Dew Point: 52°F , 11°C
Humidity: 64%
Barometer: 30.06 inHg , 1017.9 hPa
Clouds: Few Clouds
Visibility: 10 miles , 16 km
Cloud details: Few Clouds 1000 ft
2018/10/18 22:56 KSFO 182256Z 30017KT 10SM FEW010 18/11 A3006 RMK AO2 SLP180 T01780106
 
KCCR - Concord, California, USA
Distance from station: NNE 17mi, 27km
Updated: Thu, 18-Oct-2018 3:53pm PDT
Clear
Clear
 
Temperature: 81°F , 27°C
Dew Point: 37°F , 3°C
Humidity: 21%
Barometer: 30.05 inHg , 1017.6 hPa
Clouds: Clear
Visibility: 10 miles , 16 km
2018/10/18 22:53 KCCR 182253Z 10SM CLR 27/03 A3005 RMK AO2 SLP163 T02720033 $
KSQL - San Carlos Airpo, California, USA
Distance from station: SSW 18mi, 29km
Updated: Thu, 18-Oct-2018 3:47pm PDT
Clear
Clear
 Wind from NNW
Wind: NNW 8 mph , 13 km/h
Temperature: 70°F , 21°C
Dew Point: 54°F , 12°C
Humidity: 57%
Barometer: 30.07 inHg , 1018.3 hPa
Clouds: Clear
Visibility: 10 miles , 16 km
2018/10/18 22:47 KSQL 182247Z 34007KT 10SM SKC 21/12 A3007
KLVK - Livermore, California, USA
Distance from station: ESE 20mi, 31km
Updated: Thu, 18-Oct-2018 3:53pm PDT
Clear
Clear
 Wind from varies
Wind: varies 7 mph , 11 km/h
Temperature: 81°F , 27°C
Dew Point: 36°F , 2°C
Humidity: 20%
Barometer: 30.04 inHg , 1017.3 hPa
Clouds: Clear
Visibility: 10 miles , 16 km
2018/10/18 22:53 KLVK 182253Z VRB06KT 10SM CLR 27/02 A3004 RMK AO2 SLP171 T02720022
 
KPAO - Palo Alto, California, USA
Distance from station: S 21mi, 34km
Updated: Thu, 18-Oct-2018 3:47pm PDT
Clear
Clear
 Wind from N
Wind: N 12 mph , 19 km/h
Temperature: 70°F , 21°C
Dew Point: 57°F , 14°C
Humidity: 64%
Barometer: 30.08 inHg , 1018.6 hPa
Clouds: Clear
Visibility: 10 miles , 16 km
2018/10/18 22:47 KPAO 182247Z 01010KT 10SM SKC 21/14 A3008
KHAF - Half Moon Bay, California, USA
Distance from station: SW 25mi, 41km
Updated: Wed, 03-Oct-2018 1:40pm PDT
NOT Current
Haze, Mostly cloudy
Haze, Mostly cloudy
 Wind from S
Wind: S 5 mph , 7 km/h
Temperature: 64°F , 18°C
Dew Point: 59°F , 15°C
Humidity: 83%
Barometer: 29.92 inHg , 1013.2 hPa
Summary: Haze
Clouds: Mostly cloudy
Visibility: 4 miles , 6 km
Cloud details: Few Clouds 2100 ft
Mostly cloudy 3000 ft
2018/10/03 20:40 KHAF 032040Z AUTO 19004KT 4SM HZ FEW021 BKN030 18/15 A2992 RMK AO2
KNUQ - Moffett Nas/Mtn, California, USA
Distance from station: SSE 26mi, 42km
Updated: Thu, 18-Oct-2018 3:56pm PDT
Clear
Clear
 Wind from N
Wind: N 9 mph , 15 km/h
Temperature: 70°F , 21°C
Dew Point: 52°F , 11°C
Humidity: 53%
Barometer: 30.07 inHg , 1018.3 hPa
Clouds: Clear
Visibility: 10 miles , 16 km
2018/10/18 22:56 KNUQ 182256Z AUTO 35008KT 10SM CLR 21/11 A3007 RMK AO2 SLP185 T02110106
 
KAPC - Napa, California, USA
Distance from station: NNW 30mi, 49km
Updated: Thu, 18-Oct-2018 3:54pm PDT
Clear
Clear
 Wind from SSW
Wind: SSW 8 mph , 13 km/h
Temperature: 73°F , 23°C
Dew Point: 50°F , 10°C
Humidity: 44%
Barometer: 30.06 inHg , 1017.9 hPa
Clouds: Clear
Visibility: 10 miles , 16 km
2018/10/18 22:54 KAPC 182254Z 20007KT 10SM CLR 23/10 A3006 RMK AO2 SLP171 T02280100
KSJC - San Jose, California, USA
Distance from station: SSE 31mi, 50km
Updated: Thu, 18-Oct-2018 3:53pm PDT
Clear
Clear
 Wind from NNW
Wind: NNW 8 mph , 13 km/h
Temperature: 73°F , 23°C
Dew Point: 50°F , 10°C
Humidity: 44%
Barometer: 30.06 inHg , 1017.9 hPa
Clouds: Clear
Visibility: 10 miles , 16 km
2018/10/18 22:53 KSJC 182253Z 33007KT 310V010 10SM CLR 23/10 A3006 RMK AO2 SLP179 T02280100
KDVO - Novato/Gnoss Fld, California, USA
Distance from station: NW 34mi, 54km
Updated: Thu, 18-Oct-2018 4:15pm PDT
Clear
Clear
 Wind from calm
Wind: Calm
Temperature: 79°F , 26°C
Dew Point: 43°F , 6°C
Humidity: 28%
Barometer: 30.05 inHg , 1017.6 hPa
Clouds: Clear
Visibility: 10 miles , 16 km
2018/10/18 23:15 KDVO 182315Z AUTO 00000KT 10SM CLR 26/06 A3005 RMK AO2
 
KRHV - San Jose/Reid, California, USA
Distance from station: SSE 37mi, 59km
Updated: Thu, 18-Oct-2018 3:50pm PDT
Clear
Clear
 Wind from NW
Wind: NW 9 mph , 15 km/h
Temperature: 75°F , 24°C
Dew Point: 54°F , 12°C
Humidity: 47%
Barometer: 30.04 inHg , 1017.3 hPa
Clouds: Clear
Visibility: 8 miles , 13 km
2018/10/18 22:50 KRHV 182250Z 32008KT 8SM SKC 24/12 A3004
KSUU - Travis Afb/Fairf, California, USA
Distance from station: NNE 37mi, 59km
Updated: Thu, 18-Oct-2018 3:58pm PDT
Clear
Clear
 Wind from calm
Wind: Calm
Temperature: 81°F , 27°C
Dew Point: 39°F , 4°C
Humidity: 23%
Barometer: 30.04 inHg , 1017.3 hPa
Clouds: Clear
Visibility: 10 miles , 16 km
2018/10/18 22:58 KSUU 182258Z AUTO 00000KT 10SM CLR 27/04 A3004 RMK AO2 DZB29E37 SLP179 P0000 T02660044 $
KO69 - Petaluma, California, USA
Distance from station: NW 41mi, 66km
Updated: Thu, 18-Oct-2018 4:15pm PDT
Clear
Clear
 Wind from WNW
Wind: WNW 9 mph , 15 km/h, Gust: 15 mph , 24 km/h
Temperature: 72°F , 22°C
Dew Point: 54°F , 12°C
Humidity: 53%
Barometer: 30.07 inHg , 1018.3 hPa
Clouds: Clear
Visibility: 9 miles , 14 km
2018/10/18 23:15 KO69 182315Z AUTO 30008G13KT 9SM CLR 22/12 A3007 RMK A01
 
KVCB - Vacaville, California, USA
Distance from station: NNE 44mi, 71km
Updated: Thu, 18-Oct-2018 3:53pm PDT
Clear
Clear
 Wind from NW
Wind: NW 5 mph , 7 km/h
Temperature: 82°F , 28°C
Dew Point: 37°F , 3°C
Humidity: 20%
Barometer: 30.06 inHg , 1017.9 hPa
Clouds: Clear
Visibility: 10 miles , 16 km
2018/10/18 22:53 KVCB 182253Z AUTO 31004KT 10SM CLR 28/03 A3006 RMK AO2 SLP180 T02780033